createdAt,value
2023-04-26T00:00:33.983Z,99196.16
2023-04-26T00:03:01.077Z,99195.31
2023-04-26T00:05:28.492Z,99193.34
2023-04-26T00:07:55.378Z,99190.41
2023-04-26T00:10:22.163Z,99192.56
2023-04-26T00:12:48.986Z,99190.13
2023-04-26T00:15:15.757Z,99191.00
2023-04-26T00:17:42.996Z,99187.03
2023-04-26T00:20:12.898Z,99190.44
2023-04-26T00:22:40.023Z,99197.56
2023-04-26T00:25:07.069Z,99202.56
2023-04-26T00:27:33.882Z,99200.63
2023-04-26T00:30:00.670Z,99206.59
2023-04-26T00:32:27.666Z,99208.38
2023-04-26T00:34:54.388Z,99199.81
2023-04-26T00:37:21.800Z,99204.34
2023-04-26T00:39:48.648Z,99207.81
2023-04-26T00:42:15.379Z,99205.63
2023-04-26T00:44:42.845Z,99207.03
2023-04-26T00:47:09.960Z,99212.97
2023-04-26T00:49:37.044Z,99206.84
2023-04-26T00:52:04.127Z,99208.34
2023-04-26T00:54:31.082Z,99207.22
2023-04-26T00:56:58.392Z,99213.13
2023-04-26T00:59:26.634Z,99211.56
2023-04-26T01:01:54.016Z,99212.69
2023-04-26T01:04:21.757Z,99205.72
2023-04-26T01:06:49.720Z,99214.22
2023-04-26T01:09:18.286Z,99218.44
2023-04-26T01:11:45.052Z,99218.34
2023-04-26T01:14:11.832Z,99218.59
2023-04-26T01:16:39.770Z,99218.63
2023-04-26T01:19:12.608Z,99218.53
2023-04-26T01:21:40.577Z,99220.63
2023-04-26T01:24:09.374Z,99222.41
2023-04-26T01:26:48.026Z,99220.53
2023-04-26T01:29:19.438Z,99225.22
2023-04-26T01:31:47.852Z,99220.88
2023-04-26T01:34:15.201Z,99218.97
2023-04-26T01:36:42.681Z,99218.44
2023-04-26T01:39:10.335Z,99213.94
2023-04-26T01:41:37.124Z,99219.81
2023-04-26T01:44:04.206Z,99220.00
2023-04-26T01:46:31.565Z,99219.84
2023-04-26T01:48:58.457Z,99220.84
2023-04-26T01:51:25.486Z,99217.59
2023-04-26T01:53:52.187Z,99216.63
2023-04-26T01:56:20.275Z,99215.69
2023-04-26T01:58:47.389Z,99215.66
2023-04-26T02:01:14.111Z,99225.09
2023-04-26T02:03:40.994Z,99212.31
2023-04-26T02:06:08.104Z,99212.34
2023-04-26T02:08:36.330Z,99211.34
2023-04-26T02:11:03.151Z,99213.00
2023-04-26T02:13:30.311Z,99217.44
2023-04-26T02:15:57.065Z,99215.66
2023-04-26T02:18:23.808Z,99218.25
2023-04-26T02:20:51.044Z,99215.00
2023-04-26T02:23:17.851Z,99209.66
2023-04-26T02:25:48.985Z,99216.03
2023-04-26T02:28:17.213Z,99217.66
2023-04-26T02:30:44.821Z,99218.69
2023-04-26T02:33:11.793Z,99222.34
2023-04-26T02:35:39.205Z,99218.66
2023-04-26T02:38:06.107Z,99223.81
2023-04-26T02:40:32.856Z,99216.78
2023-04-26T02:43:00.007Z,99215.97
2023-04-26T02:45:26.738Z,99214.19
2023-04-26T02:47:53.801Z,99228.03
2023-04-26T02:50:21.047Z,99216.78
2023-04-26T02:52:49.237Z,99223.78
2023-04-26T02:55:15.961Z,99217.72
2023-04-26T02:57:42.919Z,99217.09
2023-04-26T03:00:10.401Z,99221.28
2023-04-26T03:02:37.431Z,99215.44
2023-04-26T03:05:04.614Z,99218.72
2023-04-26T03:07:31.979Z,99224.75
2023-04-26T03:09:59.041Z,99216.19
2023-04-26T03:12:26.405Z,99222.16
2023-04-26T03:14:53.394Z,99220.63
2023-04-26T03:17:20.376Z,99218.97
2023-04-26T03:19:47.707Z,99216.31
2023-04-26T03:22:16.365Z,99221.63
2023-04-26T03:24:44.666Z,99219.03
2023-04-26T03:27:12.389Z,99219.09
2023-04-26T03:29:39.337Z,99223.28
2023-04-26T03:32:07.525Z,99213.78
2023-04-26T03:34:34.988Z,99218.06
2023-04-26T03:37:03.403Z,99223.22
2023-04-26T03:39:30.361Z,99222.28
2023-04-26T03:41:57.987Z,99224.09
2023-04-26T03:44:24.927Z,99225.97
2023-04-26T03:46:52.109Z,99230.22
2023-04-26T03:49:19.018Z,99231.09
2023-04-26T03:51:45.975Z,99225.91
2023-04-26T03:54:15.767Z,99229.38
2023-04-26T03:56:42.951Z,99231.09
2023-04-26T03:59:10.137Z,99231.22
2023-04-26T04:01:38.151Z,99240.69
2023-04-26T04:04:05.164Z,99236.28
2023-04-26T04:06:33.040Z,99231.88
2023-04-26T04:09:01.103Z,99226.69
2023-04-26T04:11:28.061Z,99230.94
2023-04-26T04:13:55.155Z,99233.59
2023-04-26T04:16:22.034Z,99233.53
2023-04-26T04:18:48.962Z,99239.56
2023-04-26T04:21:15.718Z,99237.84
2023-04-26T04:23:43.609Z,99240.63
2023-04-26T04:26:12.771Z,99236.47
2023-04-26T04:28:41.852Z,99238.03
2023-04-26T04:31:10.242Z,99233.63
2023-04-26T04:33:37.795Z,99230.13
2023-04-26T04:36:06.837Z,99231.78
2023-04-26T04:38:33.826Z,99234.38
2023-04-26T04:41:00.688Z,99236.84
2023-04-26T04:43:28.457Z,99240.31
2023-04-26T04:45:55.743Z,99240.25
2023-04-26T04:48:22.720Z,99242.81
2023-04-26T04:50:50.473Z,99247.97
2023-04-26T04:53:17.645Z,99253.09
2023-04-26T04:55:47.584Z,99249.47
2023-04-26T04:58:16.688Z,99247.72
2023-04-26T05:00:45.817Z,99248.59
2023-04-26T05:03:18.925Z,99251.84
2023-04-26T05:05:45.799Z,99246.41
2023-04-26T05:08:12.584Z,99251.25
2023-04-26T05:10:39.735Z,99256.13
2023-04-26T05:13:07.425Z,99256.69
2023-04-26T05:15:34.751Z,99260.91
2023-04-26T05:18:02.240Z,99267.56
2023-04-26T05:20:29.562Z,99263.50
2023-04-26T05:22:56.337Z,99268.25
2023-04-26T05:25:51.731Z,99270.19
2023-04-26T05:28:44.314Z,99271.16
2023-04-26T05:31:31.594Z,99279.84
2023-04-26T05:34:12.510Z,99277.81
2023-04-26T05:36:40.786Z,99288.41
2023-04-26T05:39:08.443Z,99287.84
2023-04-26T05:41:35.371Z,99284.31
2023-04-26T05:44:02.592Z,99293.59
2023-04-26T05:47:25.982Z,99294.78
2023-04-26T05:49:53.308Z,99310.84
2023-04-26T05:52:20.656Z,99305.56
2023-04-26T05:54:49.408Z,99301.44
2023-04-26T05:57:16.254Z,99298.13
2023-04-26T05:59:50.811Z,99305.22
2023-04-26T06:02:20.712Z,99303.84
2023-04-26T06:04:48.061Z,99301.47
2023-04-26T06:07:20.101Z,99300.03
2023-04-26T06:09:49.498Z,99306.16
2023-04-26T06:12:18.073Z,99303.84
2023-04-26T06:14:49.302Z,99302.38
2023-04-26T06:17:21.124Z,99307.56
2023-04-26T06:19:48.816Z,99310.00
2023-04-26T06:22:15.856Z,99303.47
2023-04-26T06:24:43.592Z,99303.09
2023-04-26T06:27:10.561Z,99305.72
2023-04-26T06:29:39.000Z,99307.22
2023-04-26T06:32:06.978Z,99312.00
2023-04-26T06:34:34.246Z,99307.84
2023-04-26T06:37:01.555Z,99314.75
2023-04-26T06:39:29.522Z,99308.22
2023-04-26T06:41:57.832Z,99312.81
2023-04-26T06:44:31.049Z,99315.13
2023-04-26T06:47:03.689Z,99311.53
2023-04-26T06:49:36.199Z,99321.94
2023-04-26T06:52:03.652Z,99314.00
2023-04-26T06:54:36.118Z,99320.34
2023-04-26T06:57:17.185Z,99317.53
2023-04-26T06:59:46.971Z,99322.72
2023-04-26T07:02:15.634Z,99315.16
2023-04-26T07:04:43.355Z,99318.94
2023-04-26T07:07:13.218Z,99321.16
2023-04-26T07:09:41.143Z,99320.03
2023-04-26T07:12:08.331Z,99320.91
2023-04-26T07:14:39.568Z,99316.31
2023-04-26T07:17:11.142Z,99312.00
2023-04-26T07:19:40.644Z,99312.41
2023-04-26T07:22:07.596Z,99313.22
2023-04-26T07:24:40.274Z,99314.59
2023-04-26T07:27:08.667Z,99310.97
2023-04-26T07:29:35.698Z,99310.06
2023-04-26T07:32:02.697Z,99312.06
2023-04-26T07:34:29.564Z,99317.53
2023-04-26T07:36:56.852Z,99303.75
2023-04-26T07:39:25.245Z,99309.38
2023-04-26T07:41:52.215Z,99312.56
2023-04-26T07:44:21.477Z,99317.03
2023-04-26T07:46:57.626Z,99310.91
2023-04-26T07:49:25.218Z,99306.38
2023-04-26T07:51:58.853Z,99299.47
2023-04-26T07:54:25.883Z,99297.41
2023-04-26T07:57:01.216Z,99294.31
2023-04-26T07:59:29.875Z,99297.59
2023-04-26T08:01:57.329Z,99308.56
2023-04-26T08:04:38.959Z,99303.56
2023-04-26T08:07:06.177Z,99307.41
2023-04-26T08:09:33.472Z,99298.63
2023-04-26T08:12:00.632Z,99292.06
2023-04-26T08:14:31.008Z,99286.06
2023-04-26T08:16:58.253Z,99298.63
2023-04-26T08:19:26.999Z,99290.38
2023-04-26T08:21:53.945Z,99301.88
2023-04-26T08:24:20.835Z,99297.34
2023-04-26T08:26:47.717Z,99299.44
2023-04-26T08:29:15.086Z,99297.72
2023-04-26T08:31:42.391Z,99303.16
2023-04-26T08:34:11.520Z,99307.38
2023-04-26T08:36:38.607Z,99299.66
2023-04-26T08:39:05.821Z,99305.13
2023-04-26T08:41:57.598Z,99301.91
2023-04-26T08:44:25.670Z,99294.16
2023-04-26T08:47:01.851Z,99292.03
2023-04-26T08:49:45.192Z,99284.13
2023-04-26T08:52:13.542Z,99290.75
2023-04-26T08:54:43.346Z,99297.19
2023-04-26T08:57:11.199Z,99290.13
2023-04-26T08:59:39.029Z,99295.69
2023-04-26T09:02:07.301Z,99295.81
2023-04-26T09:04:40.829Z,99288.16
2023-04-26T09:07:18.919Z,99303.22
2023-04-26T09:09:53.087Z,99292.88
2023-04-26T09:12:21.102Z,99291.06
2023-04-26T09:14:48.946Z,99288.16
2023-04-26T09:17:35.994Z,99286.00
2023-04-26T09:20:25.004Z,99277.72
2023-04-26T09:22:55.033Z,99272.31
2023-04-26T09:25:30.653Z,99282.44
2023-04-26T09:28:01.117Z,99284.47
2023-04-26T09:30:28.960Z,99275.75
2023-04-26T09:32:58.563Z,99277.53
2023-04-26T09:35:29.326Z,99278.47
2023-04-26T09:38:12.817Z,99279.28
2023-04-26T09:40:54.111Z,99284.56
2023-04-26T09:43:22.466Z,99277.16
2023-04-26T09:45:51.897Z,99273.34
2023-04-26T09:48:34.916Z,99266.63
2023-04-26T09:51:05.171Z,99274.84
2023-04-26T09:53:44.225Z,99282.91
2023-04-26T09:56:16.103Z,99285.25
2023-04-26T09:58:59.246Z,99287.31
2023-04-26T10:01:29.877Z,99281.34
2023-04-26T10:03:57.965Z,99278.50
2023-04-26T10:06:25.435Z,99278.59
2023-04-26T10:08:52.607Z,99282.25
2023-04-26T10:11:22.034Z,99277.75
2023-04-26T10:13:51.020Z,99270.66
2023-04-26T10:16:18.086Z,99269.44
2023-04-26T10:18:45.274Z,99271.34
2023-04-26T10:21:18.732Z,99265.09
2023-04-26T10:23:45.608Z,99257.63
2023-04-26T10:26:54.874Z,99265.66
2023-04-26T10:29:22.369Z,99257.31
2023-04-26T10:32:08.728Z,99270.13
2023-04-26T10:34:37.459Z,99258.94
2023-04-26T10:37:15.175Z,99266.63
2023-04-26T10:39:43.772Z,99266.19
2023-04-26T10:42:27.612Z,99261.47
2023-04-26T10:44:59.541Z,99257.50
2023-04-26T10:47:29.682Z,99253.59
2023-04-26T10:50:07.516Z,99253.91
2023-04-26T10:52:58.056Z,99258.00
2023-04-26T10:55:41.830Z,99249.91
2023-04-26T10:58:30.235Z,99237.13
2023-04-26T11:01:18.215Z,99250.38
2023-04-26T11:04:09.291Z,99243.97
2023-04-26T11:06:53.863Z,99240.53
2023-04-26T11:09:52.884Z,99244.34
2023-04-26T11:12:22.483Z,99244.81
2023-04-26T11:14:49.534Z,99232.06
2023-04-26T11:17:16.471Z,99235.28
2023-04-26T11:19:43.474Z,99232.09
2023-04-26T11:22:13.577Z,99234.47
2023-04-26T11:24:40.826Z,99226.31
2023-04-26T11:27:12.088Z,99226.75
2023-04-26T11:29:39.102Z,99222.22
2023-04-26T11:32:06.885Z,99224.00
2023-04-26T11:34:41.787Z,99225.28
2023-04-26T11:37:08.797Z,99226.28
2023-04-26T11:39:37.060Z,99236.47
2023-04-26T11:42:11.359Z,99230.81
2023-04-26T11:44:39.035Z,99214.91
2023-04-26T11:47:07.693Z,99220.66
2023-04-26T11:49:37.211Z,99216.13
2023-04-26T11:52:13.216Z,99217.50
2023-04-26T11:54:40.142Z,99209.69
2023-04-26T11:57:18.084Z,99211.38
2023-04-26T11:59:46.157Z,99210.84
2023-04-26T12:02:13.872Z,99207.09
2023-04-26T12:04:41.566Z,99209.59
2023-04-26T12:07:09.049Z,99210.50
2023-04-26T12:09:43.048Z,99212.88
2023-04-26T12:12:11.548Z,99209.47
2023-04-26T12:14:40.550Z,99204.41
2023-04-26T12:17:08.102Z,99214.47
2023-04-26T12:19:38.031Z,99211.81
2023-04-26T12:22:07.012Z,99212.53
2023-04-26T12:24:38.709Z,99211.72
2023-04-26T12:27:07.165Z,99209.53
2023-04-26T12:29:35.030Z,99206.44
2023-04-26T12:32:04.402Z,99212.69
2023-04-26T12:34:31.574Z,99207.34
2023-04-26T12:36:58.356Z,99211.66
2023-04-26T12:39:26.609Z,99207.47
2023-04-26T12:41:56.377Z,99203.63
2023-04-26T12:44:24.763Z,99209.41
2023-04-26T12:46:51.645Z,99204.66
2023-04-26T12:49:18.661Z,99196.44
2023-04-26T12:51:46.314Z,99205.56
2023-04-26T12:54:13.074Z,99203.97
2023-04-26T12:56:43.932Z,99196.84
2023-04-26T12:59:11.748Z,99191.84
2023-04-26T13:01:38.957Z,99193.31
2023-04-26T13:04:06.798Z,99187.16
2023-04-26T13:06:36.411Z,99190.31
2023-04-26T13:09:04.363Z,99189.91
2023-04-26T13:11:31.657Z,99184.25
2023-04-26T13:13:58.508Z,99181.63
2023-04-26T13:16:26.714Z,99183.13
2023-04-26T13:18:54.495Z,99183.31
2023-04-26T13:21:22.131Z,99189.56
2023-04-26T13:23:49.265Z,99188.81
2023-04-26T13:26:18.202Z,99195.16
2023-04-26T13:28:45.023Z,99190.53
2023-04-26T13:31:15.571Z,99196.00
2023-04-26T13:33:42.483Z,99187.75
2023-04-26T13:36:09.468Z,99195.13
2023-04-26T13:38:37.025Z,99186.56
2023-04-26T13:43:45.207Z,99190.88
2023-04-26T13:46:12.184Z,99187.31
2023-04-26T13:48:39.206Z,99191.31
2023-04-26T13:51:07.254Z,99193.56
2023-04-26T13:53:34.795Z,99190.06
2023-04-26T13:56:02.477Z,99195.47
2023-04-26T13:58:30.101Z,99207.66
2023-04-26T14:00:57.042Z,99202.59
2023-04-26T14:03:24.007Z,99196.50
2023-04-26T14:05:51.491Z,99193.84
2023-04-26T14:08:18.879Z,99191.47
2023-04-26T14:10:46.093Z,99190.72
2023-04-26T14:13:12.941Z,99192.75
2023-04-26T14:15:39.877Z,99193.59
2023-04-26T14:18:08.409Z,99199.09
2023-04-26T14:20:36.240Z,99189.47
2023-04-26T14:23:03.042Z,99186.25
2023-04-26T14:25:30.365Z,99187.97
2023-04-26T14:27:57.141Z,99184.00
2023-04-26T14:30:27.170Z,99181.56
2023-04-26T14:32:57.479Z,99183.88
2023-04-26T14:35:24.411Z,99189.69
2023-04-26T14:37:51.173Z,99188.31
2023-04-26T14:40:18.009Z,99183.00
2023-04-26T14:42:46.066Z,99187.47
2023-04-26T14:45:13.702Z,99180.72
2023-04-26T14:47:40.715Z,99181.88
2023-04-26T14:50:09.818Z,99174.84
2023-04-26T14:52:37.029Z,99168.63
2023-04-26T14:55:03.979Z,99171.31
2023-04-26T14:57:31.492Z,99169.13
2023-04-26T15:00:06.627Z,99155.97
2023-04-26T15:02:33.841Z,99154.50
2023-04-26T15:05:04.382Z,99144.28
2023-04-26T15:07:32.782Z,99157.91
2023-04-26T15:10:00.014Z,99160.38
2023-04-26T15:12:26.992Z,99159.28
2023-04-26T15:14:53.809Z,99159.59
2023-04-26T15:17:20.432Z,99162.53
2023-04-26T15:19:47.343Z,99154.06
2023-04-26T15:22:13.959Z,99156.06
2023-04-26T15:24:40.641Z,99157.88
2023-04-26T15:27:07.469Z,99144.44
2023-04-26T15:29:34.795Z,99149.56
2023-04-26T15:32:01.881Z,99147.72
2023-04-26T15:34:30.353Z,99145.13
2023-04-26T15:37:00.295Z,99147.09
2023-04-26T15:40:29.914Z,99140.16
2023-04-26T15:42:56.737Z,99136.00
2023-04-26T15:45:24.664Z,99134.94
2023-04-26T15:47:51.484Z,99135.84
2023-04-26T15:50:18.422Z,99141.06
2023-04-26T15:52:46.196Z,99132.00
2023-04-26T15:55:13.162Z,99137.03
2023-04-26T15:57:41.851Z,99124.69
2023-04-26T16:00:14.321Z,99140.97
2023-04-26T16:03:04.919Z,99140.94
2023-04-26T16:05:31.973Z,99144.94
2023-04-26T16:07:59.790Z,99146.34
2023-04-26T16:10:29.322Z,99154.13
2023-04-26T16:12:58.923Z,99149.59
2023-04-26T16:15:26.405Z,99157.00
2023-04-26T16:17:53.199Z,99150.97
2023-04-26T16:20:21.410Z,99157.88
2023-04-26T16:22:50.553Z,99153.34
2023-04-26T16:25:17.379Z,99143.00
2023-04-26T16:27:44.695Z,99144.72
2023-04-26T16:30:11.593Z,99140.56
2023-04-26T16:32:38.357Z,99139.19
2023-04-26T16:35:06.563Z,99148.44
2023-04-26T16:37:33.335Z,99144.44
2023-04-26T16:40:00.390Z,99145.31
2023-04-26T16:42:29.074Z,99152.28
2023-04-26T16:44:55.945Z,99145.16
2023-04-26T16:47:22.752Z,99146.38
2023-04-26T16:49:49.706Z,99148.56
2023-04-26T16:52:16.525Z,99140.00
2023-04-26T16:54:43.156Z,99142.81
2023-04-26T16:57:11.125Z,99142.47
2023-04-26T16:59:37.949Z,99148.50
2023-04-26T17:02:04.979Z,99148.94
2023-04-26T17:04:32.085Z,99152.66
2023-04-26T17:07:01.165Z,99148.34
2023-04-26T17:09:28.116Z,99152.47
2023-04-26T17:11:55.047Z,99157.69
2023-04-26T17:14:21.773Z,99158.25
2023-04-26T17:16:48.526Z,99166.78
2023-04-26T17:19:15.373Z,99163.78
2023-04-26T17:21:42.441Z,99165.75
2023-04-26T17:24:09.324Z,99168.72
2023-04-26T17:26:36.687Z,99171.28
2023-04-26T17:29:03.481Z,99167.13
2023-04-26T17:31:30.511Z,99170.47
2023-04-26T17:33:57.370Z,99173.13
2023-04-26T17:36:24.207Z,99165.72
2023-04-26T17:38:51.257Z,99168.91
2023-04-26T17:41:18.327Z,99169.56
2023-04-26T17:43:45.883Z,99172.97
2023-04-26T17:46:12.894Z,99180.75
2023-04-26T17:48:40.677Z,99176.44
2023-04-26T17:51:07.654Z,99176.09
2023-04-26T17:53:34.540Z,99183.97
2023-04-26T17:56:01.767Z,99182.06
2023-04-26T17:58:28.701Z,99192.16
2023-04-26T18:00:55.891Z,99190.34
2023-04-26T18:03:23.214Z,99185.41
2023-04-26T18:05:50.541Z,99188.38
2023-04-26T18:08:17.424Z,99181.19
2023-04-26T18:10:44.236Z,99181.59
2023-04-26T18:13:11.600Z,99186.97
2023-04-26T18:15:38.805Z,99184.31
2023-04-26T18:18:08.043Z,99185.38
2023-04-26T18:20:36.747Z,99189.06
2023-04-26T18:23:04.216Z,99186.66
2023-04-26T18:25:31.255Z,99186.06
2023-04-26T18:27:59.323Z,99190.19
2023-04-26T18:30:26.676Z,99188.25
2023-04-26T18:32:53.592Z,99190.81
2023-04-26T18:35:23.026Z,99191.91
2023-04-26T18:37:49.785Z,99194.81
2023-04-26T18:40:16.680Z,99194.44
2023-04-26T18:42:45.065Z,99204.44
2023-04-26T18:45:12.697Z,99206.75
2023-04-26T18:47:39.558Z,99205.00
2023-04-26T18:50:06.830Z,99206.34
2023-04-26T18:52:34.764Z,99204.41
2023-04-26T18:55:01.606Z,99207.16
2023-04-26T18:57:28.458Z,99201.66
2023-04-26T19:00:22.880Z,99210.94
2023-04-26T19:02:51.467Z,99215.13
2023-04-26T19:05:18.599Z,99214.94
2023-04-26T19:07:45.924Z,99214.16
2023-04-26T19:10:14.913Z,99218.34
2023-04-26T19:12:41.733Z,99222.72
2023-04-26T19:15:08.674Z,99222.72
2023-04-26T19:17:35.593Z,99220.53
2023-04-26T19:20:07.316Z,99221.81
2023-04-26T19:22:34.148Z,99219.56
2023-04-26T19:25:01.306Z,99228.94
2023-04-26T19:27:28.155Z,99222.19
2023-04-26T19:29:54.836Z,99224.63
2023-04-26T19:32:22.992Z,99228.06
2023-04-26T19:34:50.125Z,99228.78
2023-04-26T19:41:04.892Z,99229.25
2023-04-26T19:43:31.796Z,99233.09
2023-04-26T19:45:58.667Z,99236.47
2023-04-26T19:48:26.533Z,99229.72
2023-04-26T19:50:53.304Z,99230.22
2023-04-26T19:53:20.209Z,99224.50
2023-04-26T19:55:47.024Z,99230.19
2023-04-26T19:58:13.922Z,99231.47
2023-04-26T20:00:40.754Z,99228.38
2023-04-26T20:03:07.878Z,99232.97
2023-04-26T20:05:35.022Z,99240.25
2023-04-26T20:08:02.156Z,99247.78
2023-04-26T20:10:34.069Z,99239.53
2023-04-26T20:13:01.733Z,99250.34
2023-04-26T20:15:29.954Z,99245.41
2023-04-26T20:17:58.586Z,99248.47
2023-04-26T20:20:25.701Z,99250.38
2023-04-26T20:22:52.429Z,99253.31
2023-04-26T20:25:22.148Z,99248.72
2023-04-26T20:27:48.807Z,99256.63
2023-04-26T20:30:15.847Z,99254.47
2023-04-26T20:32:43.077Z,99255.50
2023-04-26T20:35:10.431Z,99249.06
2023-04-26T20:37:37.345Z,99256.13
2023-04-26T20:40:05.173Z,99248.03
2023-04-26T20:42:32.084Z,99249.03
2023-04-26T20:45:01.342Z,99257.97
2023-04-26T20:47:29.150Z,99246.88
2023-04-26T20:49:56.206Z,99247.41
2023-04-26T20:52:23.190Z,99260.44
2023-04-26T20:54:50.002Z,99262.28
2023-04-26T20:57:16.998Z,99258.09
2023-04-26T20:59:43.773Z,99257.41
2023-04-26T21:02:11.718Z,99255.06
2023-04-26T21:04:41.814Z,99255.84
2023-04-26T21:07:09.657Z,99255.94
2023-04-26T21:09:37.802Z,99256.38
2023-04-26T21:12:05.072Z,99266.91
2023-04-26T21:14:31.800Z,99254.66
2023-04-26T21:16:58.609Z,99261.00
2023-04-26T21:19:25.367Z,99257.75
2023-04-26T21:21:53.276Z,99259.13
2023-04-26T21:24:20.019Z,99260.00
2023-04-26T21:26:46.856Z,99258.59
2023-04-26T21:29:13.649Z,99253.72
2023-04-26T21:31:40.477Z,99255.03
2023-04-26T21:34:07.254Z,99256.69
2023-04-26T21:36:34.001Z,99259.00
2023-04-26T21:39:01.396Z,99260.59
2023-04-26T21:41:28.429Z,99265.47
2023-04-26T21:43:56.082Z,99267.19
2023-04-26T21:46:23.226Z,99266.63
2023-04-26T21:48:51.310Z,99262.91
2023-04-26T21:51:19.946Z,99260.38
2023-04-26T21:53:46.847Z,99264.06
2023-04-26T21:56:14.650Z,99256.94
2023-04-26T21:58:41.857Z,99259.91
2023-04-26T22:01:14.128Z,99257.59
2023-04-26T22:03:41.725Z,99259.66
2023-04-26T22:06:09.691Z,99265.25
2023-04-26T22:08:36.777Z,99262.53
2023-04-26T22:11:03.759Z,99261.78
2023-04-26T22:13:31.326Z,99259.88
2023-04-26T22:15:58.359Z,99270.34
2023-04-26T22:18:26.447Z,99263.38
2023-04-26T22:20:53.702Z,99260.88
2023-04-26T22:23:20.580Z,99272.06
2023-04-26T22:25:47.276Z,99275.56
2023-04-26T22:28:14.091Z,99272.81
2023-04-26T22:30:41.023Z,99275.19
2023-04-26T22:33:09.954Z,99275.50
2023-04-26T22:35:36.829Z,99275.38
2023-04-26T22:38:03.566Z,99279.78
2023-04-26T22:40:30.321Z,99287.56
2023-04-26T22:42:57.175Z,99284.22
2023-04-26T22:45:26.373Z,99284.50
2023-04-26T22:47:53.322Z,99288.75
2023-04-26T22:50:20.270Z,99290.44
2023-04-26T22:52:47.290Z,99293.03
2023-04-26T22:55:14.106Z,99295.69
2023-04-26T22:57:40.909Z,99301.13
2023-04-26T23:00:10.257Z,99299.22
2023-04-26T23:02:37.058Z,99306.50
2023-04-26T23:05:05.474Z,99305.97
2023-04-26T23:07:33.599Z,99321.34
2023-04-26T23:10:01.103Z,99305.84
2023-04-26T23:12:28.548Z,99317.00
2023-04-26T23:14:59.193Z,99310.19
2023-04-26T23:17:27.033Z,99312.72
2023-04-26T23:19:54.439Z,99317.03
2023-04-26T23:22:21.388Z,99316.84
2023-04-26T23:24:48.211Z,99315.13
2023-04-26T23:27:15.073Z,99314.75
2023-04-26T23:29:41.905Z,99313.75
2023-04-26T23:32:08.616Z,99315.28
2023-04-26T23:34:35.314Z,99304.97
2023-04-26T23:37:07.758Z,99310.44
2023-04-26T23:39:35.695Z,99310.03
2023-04-26T23:42:02.479Z,99312.63
2023-04-26T23:44:29.419Z,99310.69
2023-04-26T23:46:57.293Z,99318.88
2023-04-26T23:49:24.559Z,99317.78
2023-04-26T23:51:51.428Z,99310.03
2023-04-26T23:54:18.197Z,99314.28
2023-04-26T23:56:44.983Z,99311.13
2023-04-26T23:59:12.030Z,99311.72
